sensor_id;sensor_type;location;lat;lon;timestamp;temperature;humidity
45645;DHT22;31359;48.784;9.192;2022-07-09T00:00:49;23.20;49.40
45645;DHT22;31359;48.784;9.192;2022-07-09T00:05:50;23.10;49.60
45645;DHT22;31359;48.784;9.192;2022-07-09T00:10:52;23.00;49.80
45645;DHT22;31359;48.784;9.192;2022-07-09T00:15:54;22.90;50.00
45645;DHT22;31359;48.784;9.192;2022-07-09T00:20:56;22.90;50.20
45645;DHT22;31359;48.784;9.192;2022-07-09T00:25:57;23.00;50.00
45645;DHT22;31359;48.784;9.192;2022-07-09T00:30:59;23.20;49.50
45645;DHT22;31359;48.784;9.192;2022-07-09T00:36:01;23.30;49.20
45645;DHT22;31359;48.784;9.192;2022-07-09T00:41:03;23.40;49.00
45645;DHT22;31359;48.784;9.192;2022-07-09T00:46:05;23.40;48.90
45645;DHT22;31359;48.784;9.192;2022-07-09T00:51:08;23.40;48.90
45645;DHT22;31359;48.784;9.192;2022-07-09T00:56:11;23.40;48.80
45645;DHT22;31359;48.784;9.192;2022-07-09T01:01:13;23.50;48.80
45645;DHT22;31359;48.784;9.192;2022-07-09T01:06:14;23.40;48.80
45645;DHT22;31359;48.784;9.192;2022-07-09T01:11:17;23.40;48.80
45645;DHT22;31359;48.784;9.192;2022-07-09T01:16:18;23.40;48.80
45645;DHT22;31359;48.784;9.192;2022-07-09T01:21:21;23.40;48.80
45645;DHT22;31359;48.784;9.192;2022-07-09T01:26:24;23.30;48.90
45645;DHT22;31359;48.784;9.192;2022-07-09T01:31:26;23.20;49.10
45645;DHT22;31359;48.784;9.192;2022-07-09T01:36:28;23.20;49.20
45645;DHT22;31359;48.784;9.192;2022-07-09T01:41:30;23.10;49.10
45645;DHT22;31359;48.784;9.192;2022-07-09T01:46:34;23.00;49.40
45645;DHT22;31359;48.784;9.192;2022-07-09T01:51:36;23.00;49.50
45645;DHT22;31359;48.784;9.192;2022-07-09T01:56:37;23.00;49.40
45645;DHT22;31359;48.784;9.192;2022-07-09T02:01:39;23.10;49.30
45645;DHT22;31359;48.784;9.192;2022-07-09T02:06:41;23.10;49.20
45645;DHT22;31359;48.784;9.192;2022-07-09T02:11:43;23.20;49.20
45645;DHT22;31359;48.784;9.192;2022-07-09T02:16:44;23.10;49.00
45645;DHT22;31359;48.784;9.192;2022-07-09T02:21:46;23.10;49.00
45645;DHT22;31359;48.784;9.192;2022-07-09T02:26:48;23.20;48.90
45645;DHT22;31359;48.784;9.192;2022-07-09T02:31:50;23.00;48.80
45645;DHT22;31359;48.784;9.192;2022-07-09T02:36:52;23.00;49.10
45645;DHT22;31359;48.784;9.192;2022-07-09T02:41:54;22.90;48.70
45645;DHT22;31359;48.784;9.192;2022-07-09T02:46:55;22.90;49.30
45645;DHT22;31359;48.784;9.192;2022-07-09T02:51:57;22.90;49.40
45645;DHT22;31359;48.784;9.192;2022-07-09T02:57:01;23.00;49.50
45645;DHT22;31359;48.784;9.192;2022-07-09T03:02:03;23.00;49.50
45645;DHT22;31359;48.784;9.192;2022-07-09T03:07:05;23.00;49.40
45645;DHT22;31359;48.784;9.192;2022-07-09T03:12:06;23.00;49.40
45645;DHT22;31359;48.784;9.192;2022-07-09T03:17:08;23.00;49.40
45645;DHT22;31359;48.784;9.192;2022-07-09T03:22:10;23.00;49.40
45645;DHT22;31359;48.784;9.192;2022-07-09T03:27:13;22.80;49.50
45645;DHT22;31359;48.784;9.192;2022-07-09T03:32:15;22.80;49.70
45645;DHT22;31359;48.784;9.192;2022-07-09T03:37:17;22.80;49.70
45645;DHT22;31359;48.784;9.192;2022-07-09T03:42:18;22.90;49.50
45645;DHT22;31359;48.784;9.192;2022-07-09T03:47:20;22.90;49.40
45645;DHT22;31359;48.784;9.192;2022-07-09T03:52:22;22.90;49.20
45645;DHT22;31359;48.784;9.192;2022-07-09T03:57:23;22.90;49.30
45645;DHT22;31359;48.784;9.192;2022-07-09T04:02:25;22.90;49.30
45645;DHT22;31359;48.784;9.192;2022-07-09T04:07:27;22.90;49.20
45645;DHT22;31359;48.784;9.192;2022-07-09T04:12:29;22.80;49.20
45645;DHT22;31359;48.784;9.192;2022-07-09T04:17:30;22.70;49.40
45645;DHT22;31359;48.784;9.192;2022-07-09T04:22:32;22.70;49.70
45645;DHT22;31359;48.784;9.192;2022-07-09T04:27:34;22.70;49.60
45645;DHT22;31359;48.784;9.192;2022-07-09T04:32:37;22.80;49.50
45645;DHT22;31359;48.784;9.192;2022-07-09T04:37:39;22.80;49.40
45645;DHT22;31359;48.784;9.192;2022-07-09T04:42:40;22.80;49.40
45645;DHT22;31359;48.784;9.192;2022-07-09T04:47:42;22.80;49.30
45645;DHT22;31359;48.784;9.192;2022-07-09T04:52:44;22.70;49.50
45645;DHT22;31359;48.784;9.192;2022-07-09T04:57:46;22.60;49.70
45645;DHT22;31359;48.784;9.192;2022-07-09T05:02:48;22.70;49.80
45645;DHT22;31359;48.784;9.192;2022-07-09T05:07:50;22.70;49.50
45645;DHT22;31359;48.784;9.192;2022-07-09T05:12:52;22.80;49.50
45645;DHT22;31359;48.784;9.192;2022-07-09T05:17:54;22.80;49.40
45645;DHT22;31359;48.784;9.192;2022-07-09T05:22:56;22.90;49.90
45645;DHT22;31359;48.784;9.192;2022-07-09T05:27:57;22.90;49.80
45645;DHT22;31359;48.784;9.192;2022-07-09T05:32:59;22.90;49.80
45645;DHT22;31359;48.784;9.192;2022-07-09T05:38:01;22.90;49.70
45645;DHT22;31359;48.784;9.192;2022-07-09T05:43:03;22.80;49.90
45645;DHT22;31359;48.784;9.192;2022-07-09T05:48:05;22.70;50.20
45645;DHT22;31359;48.784;9.192;2022-07-09T05:53:07;22.60;50.10
45645;DHT22;31359;48.784;9.192;2022-07-09T05:58:08;22.70;49.90
45645;DHT22;31359;48.784;9.192;2022-07-09T06:03:10;22.70;49.70
45645;DHT22;31359;48.784;9.192;2022-07-09T06:08:12;22.70;49.50
45645;DHT22;31359;48.784;9.192;2022-07-09T06:13:13;22.80;49.70
45645;DHT22;31359;48.784;9.192;2022-07-09T06:18:15;22.80;49.70
45645;DHT22;31359;48.784;9.192;2022-07-09T06:23:18;22.90;50.00
45645;DHT22;31359;48.784;9.192;2022-07-09T06:28:19;22.90;50.00
45645;DHT22;31359;48.784;9.192;2022-07-09T06:33:21;22.80;50.40
45645;DHT22;31359;48.784;9.192;2022-07-09T06:38:23;22.70;50.60
45645;DHT22;31359;48.784;9.192;2022-07-09T06:43:25;22.80;50.80
45645;DHT22;31359;48.784;9.192;2022-07-09T06:48:27;22.90;50.60
45645;DHT22;31359;48.784;9.192;2022-07-09T06:53:29;22.90;49.20
45645;DHT22;31359;48.784;9.192;2022-07-09T06:58:31;22.90;49.40
45645;DHT22;31359;48.784;9.192;2022-07-09T07:03:33;22.80;49.60
45645;DHT22;31359;48.784;9.192;2022-07-09T07:08:35;22.90;49.80
45645;DHT22;31359;48.784;9.192;2022-07-09T07:13:37;22.90;49.80
45645;DHT22;31359;48.784;9.192;2022-07-09T07:18:39;22.90;49.80
45645;DHT22;31359;48.784;9.192;2022-07-09T07:23:41;22.80;49.90
45645;DHT22;31359;48.784;9.192;2022-07-09T07:28:43;22.60;50.20
45645;DHT22;31359;48.784;9.192;2022-07-09T07:33:44;22.60;50.40
45645;DHT22;31359;48.784;9.192;2022-07-09T07:38:46;22.70;50.30
45645;DHT22;31359;48.784;9.192;2022-07-09T07:43:48;22.80;50.20
45645;DHT22;31359;48.784;9.192;2022-07-09T07:48:50;22.90;50.40
45645;DHT22;31359;48.784;9.192;2022-07-09T07:53:52;22.90;50.50
45645;DHT22;31359;48.784;9.192;2022-07-09T07:58:53;22.80;50.60
45645;DHT22;31359;48.784;9.192;2022-07-09T08:03:55;22.80;50.80
45645;DHT22;31359;48.784;9.192;2022-07-09T08:08:57;22.70;50.80
45645;DHT22;31359;48.784;9.192;2022-07-09T08:13:59;22.80;51.00
45645;DHT22;31359;48.784;9.192;2022-07-09T08:19:01;22.80;50.80
45645;DHT22;31359;48.784;9.192;2022-07-09T08:24:02;22.90;50.70
45645;DHT22;31359;48.784;9.192;2022-07-09T08:29:07;22.90;50.70
45645;DHT22;31359;48.784;9.192;2022-07-09T08:34:08;23.00;51.10
45645;DHT22;31359;48.784;9.192;2022-07-09T08:39:10;23.00;50.90
45645;DHT22;31359;48.784;9.192;2022-07-09T08:44:12;23.00;51.10
45645;DHT22;31359;48.784;9.192;2022-07-09T08:49:15;23.00;51.10
45645;DHT22;31359;48.784;9.192;2022-07-09T08:54:17;22.80;51.20
45645;DHT22;31359;48.784;9.192;2022-07-09T08:59:21;22.70;51.20
45645;DHT22;31359;48.784;9.192;2022-07-09T09:04:24;22.80;51.10
45645;DHT22;31359;48.784;9.192;2022-07-09T09:09:25;22.90;50.90
45645;DHT22;31359;48.784;9.192;2022-07-09T09:14:29;22.90;50.70
45645;DHT22;31359;48.784;9.192;2022-07-09T09:19:39;23.00;50.50
45645;DHT22;31359;48.784;9.192;2022-07-09T09:24:41;23.00;50.40
45645;DHT22;31359;48.784;9.192;2022-07-09T09:29:50;22.90;50.60
45645;DHT22;31359;48.784;9.192;2022-07-09T09:34:52;22.80;50.70
45645;DHT22;31359;48.784;9.192;2022-07-09T09:39:54;22.80;50.60
45645;DHT22;31359;48.784;9.192;2022-07-09T09:44:59;22.90;50.20
45645;DHT22;31359;48.784;9.192;2022-07-09T09:50:01;22.90;50.10
45645;DHT22;31359;48.784;9.192;2022-07-09T09:55:03;23.00;50.20
45645;DHT22;31359;48.784;9.192;2022-07-09T10:00:06;23.00;50.10
45645;DHT22;31359;48.784;9.192;2022-07-09T10:05:08;22.90;50.20
45645;DHT22;31359;48.784;9.192;2022-07-09T10:10:20;22.80;50.30
45645;DHT22;31359;48.784;9.192;2022-07-09T10:15:26;22.70;50.20
45645;DHT22;31359;48.784;9.192;2022-07-09T10:20:31;22.80;50.10
45645;DHT22;31359;48.784;9.192;2022-07-09T10:25:45;22.90;49.90
45645;DHT22;31359;48.784;9.192;2022-07-09T10:30:47;22.90;49.90
45645;DHT22;31359;48.784;9.192;2022-07-09T10:35:51;23.00;50.60
45645;DHT22;31359;48.784;9.192;2022-07-09T10:40:58;23.00;50.20
45645;DHT22;31359;48.784;9.192;2022-07-09T10:46:12;22.90;50.40
45645;DHT22;31359;48.784;9.192;2022-07-09T10:51:22;22.80;50.40
45645;DHT22;31359;48.784;9.192;2022-07-09T10:56:24;22.90;50.20
45645;DHT22;31359;48.784;9.192;2022-07-09T11:01:26;23.00;50.50
45645;DHT22;31359;48.784;9.192;2022-07-09T11:06:28;23.10;51.00
45645;DHT22;31359;48.784;9.192;2022-07-09T11:11:30;23.20;50.60
45645;DHT22;31359;48.784;9.192;2022-07-09T11:16:32;23.20;50.70
45645;DHT22;31359;48.784;9.192;2022-07-09T11:21:34;23.30;50.80
45645;DHT22;31359;48.784;9.192;2022-07-09T11:26:36;23.30;52.20
45645;DHT22;31359;48.784;9.192;2022-07-09T11:31:47;23.30;51.80
45645;DHT22;31359;48.784;9.192;2022-07-09T11:36:56;23.30;50.80
45645;DHT22;31359;48.784;9.192;2022-07-09T11:42:00;23.30;50.70
45645;DHT22;31359;48.784;9.192;2022-07-09T11:47:12;23.30;50.70
45645;DHT22;31359;48.784;9.192;2022-07-09T11:57:20;23.10;51.10
45645;DHT22;31359;48.784;9.192;2022-07-09T12:07:33;23.10;51.50
45645;DHT22;31359;48.784;9.192;2022-07-09T12:12:37;23.20;51.30
45645;DHT22;31359;48.784;9.192;2022-07-09T12:17:39;23.20;51.20
45645;DHT22;31359;48.784;9.192;2022-07-09T12:22:41;23.20;51.10
45645;DHT22;31359;48.784;9.192;2022-07-09T12:27:43;23.30;51.70
45645;DHT22;31359;48.784;9.192;2022-07-09T12:32:46;23.30;51.00
45645;DHT22;31359;48.784;9.192;2022-07-09T12:37:48;23.30;51.10
45645;DHT22;31359;48.784;9.192;2022-07-09T12:42:49;23.20;51.00
45645;DHT22;31359;48.784;9.192;2022-07-09T12:47:51;23.10;51.30
45645;DHT22;31359;48.784;9.192;2022-07-09T12:52:53;23.20;52.00
45645;DHT22;31359;48.784;9.192;2022-07-09T12:57:55;23.30;51.90
45645;DHT22;31359;48.784;9.192;2022-07-09T13:02:57;23.40;52.10
45645;DHT22;31359;48.784;9.192;2022-07-09T13:07:58;23.40;52.60
45645;DHT22;31359;48.784;9.192;2022-07-09T13:13:00;23.40;52.50
45645;DHT22;31359;48.784;9.192;2022-07-09T13:18:02;23.40;52.30
45645;DHT22;31359;48.784;9.192;2022-07-09T13:23:05;23.40;51.70
45645;DHT22;31359;48.784;9.192;2022-07-09T13:28:06;23.40;50.70
45645;DHT22;31359;48.784;9.192;2022-07-09T13:33:08;23.30;51.00
45645;DHT22;31359;48.784;9.192;2022-07-09T13:38:10;23.10;51.10
45645;DHT22;31359;48.784;9.192;2022-07-09T13:43:19;23.10;51.30
45645;DHT22;31359;48.784;9.192;2022-07-09T13:48:21;23.20;51.20
45645;DHT22;31359;48.784;9.192;2022-07-09T13:53:23;23.30;51.10
45645;DHT22;31359;48.784;9.192;2022-07-09T13:58:25;23.30;50.90
45645;DHT22;31359;48.784;9.192;2022-07-09T14:03:26;23.30;50.80
45645;DHT22;31359;48.784;9.192;2022-07-09T14:08:28;23.30;50.60
45645;DHT22;31359;48.784;9.192;2022-07-09T14:13:30;23.30;50.70
45645;DHT22;31359;48.784;9.192;2022-07-09T14:18:32;23.30;50.80
45645;DHT22;31359;48.784;9.192;2022-07-09T14:23:34;23.20;50.90
45645;DHT22;31359;48.784;9.192;2022-07-09T14:28:36;23.10;51.10
45645;DHT22;31359;48.784;9.192;2022-07-09T14:33:39;23.10;51.30
45645;DHT22;31359;48.784;9.192;2022-07-09T14:38:40;23.20;51.20
45645;DHT22;31359;48.784;9.192;2022-07-09T14:43:43;23.20;51.00
45645;DHT22;31359;48.784;9.192;2022-07-09T14:48:45;23.30;50.90
45645;DHT22;31359;48.784;9.192;2022-07-09T14:53:47;23.30;51.30
45645;DHT22;31359;48.784;9.192;2022-07-09T14:58:48;23.30;50.90
45645;DHT22;31359;48.784;9.192;2022-07-09T15:03:50;23.10;50.90
45645;DHT22;31359;48.784;9.192;2022-07-09T15:08:52;23.10;51.10
45645;DHT22;31359;48.784;9.192;2022-07-09T15:13:54;23.20;51.00
45645;DHT22;31359;48.784;9.192;2022-07-09T15:18:55;23.20;50.70
45645;DHT22;31359;48.784;9.192;2022-07-09T15:23:57;23.20;50.70
45645;DHT22;31359;48.784;9.192;2022-07-09T15:28:59;23.20;50.60
45645;DHT22;31359;48.784;9.192;2022-07-09T15:34:01;23.20;50.70
45645;DHT22;31359;48.784;9.192;2022-07-09T15:39:03;23.20;50.30
45645;DHT22;31359;48.784;9.192;2022-07-09T15:44:04;23.30;50.30
45645;DHT22;31359;48.784;9.192;2022-07-09T15:49:06;23.20;50.60
45645;DHT22;31359;48.784;9.192;2022-07-09T15:54:08;23.10;51.00
45645;DHT22;31359;48.784;9.192;2022-07-09T15:59:10;23.30;51.90
45645;DHT22;31359;48.784;9.192;2022-07-09T16:04:11;23.50;52.00
45645;DHT22;31359;48.784;9.192;2022-07-09T16:09:13;23.50;51.70
45645;DHT22;31359;48.784;9.192;2022-07-09T16:14:15;23.60;51.30
45645;DHT22;31359;48.784;9.192;2022-07-09T16:19:17;23.70;51.20
45645;DHT22;31359;48.784;9.192;2022-07-09T16:24:19;23.70;50.80
45645;DHT22;31359;48.784;9.192;2022-07-09T16:29:20;23.70;50.90
45645;DHT22;31359;48.784;9.192;2022-07-09T16:34:22;23.70;50.50
45645;DHT22;31359;48.784;9.192;2022-07-09T16:39:24;23.60;50.30
45645;DHT22;31359;48.784;9.192;2022-07-09T16:44:26;23.60;50.40
45645;DHT22;31359;48.784;9.192;2022-07-09T16:49:28;23.40;50.60
45645;DHT22;31359;48.784;9.192;2022-07-09T16:54:49;23.40;50.60
45645;DHT22;31359;48.784;9.192;2022-07-09T16:59:52;23.30;50.70
45645;DHT22;31359;48.784;9.192;2022-07-09T17:05:14;23.40;50.30
45645;DHT22;31359;48.784;9.192;2022-07-09T17:10:16;23.40;50.90
45645;DHT22;31359;48.784;9.192;2022-07-09T17:15:18;23.40;50.30
45645;DHT22;31359;48.784;9.192;2022-07-09T17:20:20;23.40;50.20
45645;DHT22;31359;48.784;9.192;2022-07-09T17:25:22;23.50;50.60
45645;DHT22;31359;48.784;9.192;2022-07-09T17:30:24;23.50;50.40
45645;DHT22;31359;48.784;9.192;2022-07-09T17:35:26;23.50;50.30
45645;DHT22;31359;48.784;9.192;2022-07-09T17:40:28;23.50;50.40
45645;DHT22;31359;48.784;9.192;2022-07-09T17:45:31;23.50;50.10
45645;DHT22;31359;48.784;9.192;2022-07-09T17:50:33;23.40;50.30
45645;DHT22;31359;48.784;9.192;2022-07-09T17:55:34;23.30;50.30
45645;DHT22;31359;48.784;9.192;2022-07-09T18:00:38;23.20;50.10
45645;DHT22;31359;48.784;9.192;2022-07-09T18:05:40;23.30;49.80
45645;DHT22;31359;48.784;9.192;2022-07-09T18:10:43;23.40;49.60
45645;DHT22;31359;48.784;9.192;2022-07-09T18:15:46;23.40;50.40
45645;DHT22;31359;48.784;9.192;2022-07-09T18:20:47;23.40;50.00
45645;DHT22;31359;48.784;9.192;2022-07-09T18:25:50;23.40;50.10
45645;DHT22;31359;48.784;9.192;2022-07-09T18:30:54;23.40;50.30
45645;DHT22;31359;48.784;9.192;2022-07-09T18:35:56;23.40;50.30
45645;DHT22;31359;48.784;9.192;2022-07-09T18:41:05;23.40;50.40
45645;DHT22;31359;48.784;9.192;2022-07-09T18:46:11;23.30;50.50
45645;DHT22;31359;48.784;9.192;2022-07-09T18:51:13;23.30;50.60
45645;DHT22;31359;48.784;9.192;2022-07-09T18:56:15;23.30;51.20
45645;DHT22;31359;48.784;9.192;2022-07-09T19:01:17;23.40;51.40
45645;DHT22;31359;48.784;9.192;2022-07-09T19:06:19;23.40;51.30
45645;DHT22;31359;48.784;9.192;2022-07-09T19:11:20;23.40;51.30
45645;DHT22;31359;48.784;9.192;2022-07-09T19:16:23;23.40;51.50
45645;DHT22;31359;48.784;9.192;2022-07-09T19:21:27;23.40;51.50
45645;DHT22;31359;48.784;9.192;2022-07-09T19:26:28;23.30;51.60
45645;DHT22;31359;48.784;9.192;2022-07-09T19:31:30;23.30;51.50
45645;DHT22;31359;48.784;9.192;2022-07-09T19:36:50;23.40;51.40
45645;DHT22;31359;48.784;9.192;2022-07-09T19:41:52;23.40;51.70
45645;DHT22;31359;48.784;9.192;2022-07-09T19:46:54;23.40;51.40
45645;DHT22;31359;48.784;9.192;2022-07-09T19:51:56;23.40;51.40
45645;DHT22;31359;48.784;9.192;2022-07-09T19:56:58;23.30;51.40
45645;DHT22;31359;48.784;9.192;2022-07-09T20:01:59;23.20;51.90
45645;DHT22;31359;48.784;9.192;2022-07-09T20:07:01;23.20;52.60
45645;DHT22;31359;48.784;9.192;2022-07-09T20:12:03;23.10;50.30
45645;DHT22;31359;48.784;9.192;2022-07-09T20:17:05;23.20;50.30
45645;DHT22;31359;48.784;9.192;2022-07-09T20:22:07;23.20;50.80
45645;DHT22;31359;48.784;9.192;2022-07-09T20:27:09;23.30;51.30
45645;DHT22;31359;48.784;9.192;2022-07-09T20:32:11;23.30;51.40
45645;DHT22;31359;48.784;9.192;2022-07-09T20:37:13;23.30;51.70
45645;DHT22;31359;48.784;9.192;2022-07-09T20:42:14;23.30;51.70
45645;DHT22;31359;48.784;9.192;2022-07-09T20:47:16;23.30;51.70
45645;DHT22;31359;48.784;9.192;2022-07-09T20:52:18;23.20;51.90
45645;DHT22;31359;48.784;9.192;2022-07-09T20:57:20;23.10;52.10
45645;DHT22;31359;48.784;9.192;2022-07-09T21:02:22;23.10;52.10
45645;DHT22;31359;48.784;9.192;2022-07-09T21:07:24;23.20;52.00
45645;DHT22;31359;48.784;9.192;2022-07-09T21:12:25;23.20;51.90
45645;DHT22;31359;48.784;9.192;2022-07-09T21:17:28;23.30;52.00
45645;DHT22;31359;48.784;9.192;2022-07-09T21:22:48;23.20;51.90
45645;DHT22;31359;48.784;9.192;2022-07-09T21:27:50;23.30;51.90
45645;DHT22;31359;48.784;9.192;2022-07-09T21:32:53;23.30;52.00
45645;DHT22;31359;48.784;9.192;2022-07-09T21:37:54;23.20;51.90
45645;DHT22;31359;48.784;9.192;2022-07-09T21:42:56;23.10;52.30
45645;DHT22;31359;48.784;9.192;2022-07-09T21:47:58;23.00;52.40
45645;DHT22;31359;48.784;9.192;2022-07-09T21:53:00;23.00;52.40
45645;DHT22;31359;48.784;9.192;2022-07-09T21:58:02;23.20;52.40
45645;DHT22;31359;48.784;9.192;2022-07-09T22:03:04;23.20;52.40
45645;DHT22;31359;48.784;9.192;2022-07-09T22:08:06;23.20;52.30
45645;DHT22;31359;48.784;9.192;2022-07-09T22:13:07;23.20;52.20
45645;DHT22;31359;48.784;9.192;2022-07-09T22:18:09;23.20;52.30
45645;DHT22;31359;48.784;9.192;2022-07-09T22:23:11;23.20;52.20
45645;DHT22;31359;48.784;9.192;2022-07-09T22:28:13;23.10;52.30
45645;DHT22;31359;48.784;9.192;2022-07-09T22:33:15;23.00;52.50
45645;DHT22;31359;48.784;9.192;2022-07-09T22:38:16;23.00;52.70
45645;DHT22;31359;48.784;9.192;2022-07-09T22:43:18;23.00;52.50
45645;DHT22;31359;48.784;9.192;2022-07-09T22:48:20;23.10;52.40
45645;DHT22;31359;48.784;9.192;2022-07-09T22:53:22;23.10;52.40
45645;DHT22;31359;48.784;9.192;2022-07-09T22:58:24;23.10;52.30
45645;DHT22;31359;48.784;9.192;2022-07-09T23:03:25;23.10;52.50
45645;DHT22;31359;48.784;9.192;2022-07-09T23:08:28;23.00;52.50
45645;DHT22;31359;48.784;9.192;2022-07-09T23:13:48;22.90;52.80
45645;DHT22;31359;48.784;9.192;2022-07-09T23:18:50;23.00;52.80
45645;DHT22;31359;48.784;9.192;2022-07-09T23:23:52;23.00;52.60
45645;DHT22;31359;48.784;9.192;2022-07-09T23:28:54;23.10;52.60
45645;DHT22;31359;48.784;9.192;2022-07-09T23:33:56;23.10;52.50
45645;DHT22;31359;48.784;9.192;2022-07-09T23:38:58;23.10;52.30
45645;DHT22;31359;48.784;9.192;2022-07-09T23:44:00;23.10;52.30
45645;DHT22;31359;48.784;9.192;2022-07-09T23:49:01;23.20;52.40
45645;DHT22;31359;48.784;9.192;2022-07-09T23:54:03;23.10;52.40
45645;DHT22;31359;48.784;9.192;2022-07-09T23:59:05;22.90;52.60
